.
WxDataArchive / Data Records for 2012-10-05
2012-10-04 October 2012 2012-10-06

Data Records for Friday, 05 October 2012

Time	Temp	Chill	HIndex	Humid	Dewpt	 Wind 	HiWind	WindDir	Rain 	Barom 
-----	----	-----	------	-----	-----	------	------	-------	-----	----- 
00:00	67.3	67.3	67.3	65	55.1	0	1	225	0.00	30.041 
00:05	67.1	67.1	67.1	65	54.9	0	1	225	0.00	30.041 
00:10	67.1	67.1	67.1	65	54.9	0	1	225	0.00	30.041 
00:15	67.1	67.1	67.1	66	55.4	0	1	225	0.00	30.039 
00:20	67.1	67.1	67.1	67	55.8	0	1	225	0.00	30.039 
00:25	66.9	66.9	66.9	67	55.6	0	3	225	0.00	30.039 
00:30	66.9	66.9	66.9	67	55.6	1	4	270	0.00	30.036 
00:35	66.8	66.8	66.8	69	56.3	1	4	270	0.00	30.036 
00:40	66.3	66.3	66.3	71	56.6	1	3	270	0.00	30.036 
00:45	65.6	65.6	65.6	74	57.1	2	5	270	0.00	30.058 
00:50	64.0	64.0	64.0	77	56.6	4	9	270	0.01	30.058 
00:55	62.4	62.4	62.4	82	56.8	3	6	315	0.00	30.058 
01:00	61.5	61.5	61.5	84	56.6	2	5	270	0.00	30.067 
01:05	61.0	61.0	61.0	85	56.5	1	6	270	0.00	30.067 
01:10	60.7	60.7	60.7	86	56.5	1	4	270	0.00	30.067 
01:15	60.5	60.5	60.5	87	56.6	0	3	270	0.00	30.052 
01:20	60.4	60.4	60.4	88	56.8	0	2	270	0.02	30.052 
01:25	60.2	60.2	60.2	88	56.6	0	2	270	0.00	30.052 
01:30	60.1	60.1	60.1	89	56.8	0	1	270	0.00	30.053 
01:35	59.8	59.8	59.8	89	56.5	0	1	270	0.00	30.053 
01:40	59.6	59.6	59.6	90	56.7	0	0	---	0.00	30.053 
01:45	59.5	59.5	59.5	90	56.6	0	1	270	0.01	30.039 
01:50	59.3	59.3	59.3	90	56.4	0	1	270	0.00	30.039 
01:55	59.2	59.2	59.2	91	56.6	0	1	270	0.00	30.039 
02:00	59.0	59.0	59.0	91	56.4	0	0	---	0.00	30.039 
02:05	58.9	58.9	58.9	91	56.3	0	1	270	0.00	30.039 
02:10	58.9	58.9	58.9	91	56.3	0	1	270	0.00	30.039 
02:15	58.9	58.9	58.9	92	56.6	0	1	270	0.00	30.046 
02:20	58.9	58.9	58.9	92	56.6	0	1	270	0.00	30.046 
02:25	58.9	58.9	58.9	92	56.6	0	1	270	0.00	30.046 
02:30	58.7	58.7	58.7	92	56.4	0	1	270	0.00	30.055 
02:35	58.6	58.6	58.6	92	56.3	0	2	270	0.00	30.055 
02:40	58.4	58.4	58.4	92	56.1	0	2	270	0.00	30.055 
02:45	58.3	58.3	58.3	92	56.0	0	2	270	0.00	30.056 
02:50	58.3	58.3	58.3	92	56.0	0	3	270	0.00	30.056 
02:55	58.1	58.1	58.1	92	55.8	1	3	270	0.00	30.056 
03:00	58.0	58.0	58.0	92	55.7	0	2	270	0.00	30.057 
03:05	58.0	58.0	58.0	92	55.7	0	2	270	0.00	30.057 
03:10	57.8	57.8	57.8	92	55.5	1	3	270	0.00	30.057 
03:15	57.8	57.8	57.8	92	55.5	0	2	270	0.00	30.055 
03:20	57.6	57.6	57.6	92	55.3	0	3	270	0.00	30.055 
03:25	57.5	57.5	57.5	92	55.2	0	1	270	0.00	30.055 
03:30	57.3	57.3	57.3	92	55.0	0	1	270	0.00	30.050 
03:35	57.2	57.2	57.2	92	54.9	0	1	270	0.00	30.050 
03:40	57.2	57.2	57.2	92	54.9	0	2	270	0.00	30.050 
03:45	57.2	57.2	57.2	92	54.9	0	1	270	0.00	30.051 
03:50	57.2	57.2	57.2	92	54.9	0	1	270	0.00	30.051 
03:55	57.2	57.2	57.2	92	54.9	0	1	270	0.00	30.051 
04:00	57.2	57.2	57.2	92	54.9	0	3	270	0.00	30.052 
04:05	57.2	57.2	57.2	92	54.9	0	3	270	0.00	30.052 
04:10	57.2	57.2	57.2	92	54.9	0	1	270	0.00	30.052 
04:15	57.0	57.0	57.0	92	54.7	0	1	270	0.00	30.058 
04:20	57.0	57.0	57.0	92	54.7	0	1	270	0.00	30.058 
04:25	56.9	56.9	56.9	92	54.6	0	1	270	0.00	30.058 
04:30	56.7	56.7	56.7	92	54.4	0	3	270	0.00	30.063 
04:35	56.6	56.6	56.6	92	54.3	0	2	270	0.00	30.063 
04:40	56.3	56.3	56.3	92	54.0	1	3	270	0.00	30.063 
04:45	56.3	56.3	56.3	92	54.0	0	2	270	0.00	30.073 
04:50	56.2	56.2	56.2	91	53.6	1	5	270	0.00	30.073 
04:55	56.0	56.0	56.0	91	53.4	1	3	270	0.00	30.073 
05:00	55.9	55.9	55.9	91	53.3	1	4	270	0.00	30.079 
05:05	55.9	55.9	55.9	91	53.3	1	4	270	0.00	30.079 
05:10	55.9	55.9	55.9	91	53.3	1	3	270	0.00	30.079 
05:15	55.6	55.6	55.6	90	52.7	1	3	270	0.00	30.103 
05:20	55.3	55.3	55.3	89	52.1	1	4	270	0.00	30.103 
05:25	55.3	55.3	55.3	89	52.1	1	5	270	0.00	30.103 
05:30	55.3	55.3	55.3	88	51.8	1	3	270	0.00	30.097 
05:35	55.1	55.1	55.1	88	51.6	0	2	270	0.00	30.097 
05:40	55.0	55.0	55.0	88	51.5	0	1	270	0.00	30.097 
05:45	55.0	55.0	55.0	88	51.5	0	1	270	0.00	30.080 
05:50	54.8	54.8	54.8	87	51.0	0	2	270	0.00	30.080 
05:55	54.5	54.5	54.5	85	50.1	1	5	270	0.00	30.080 
06:00	54.4	54.4	54.4	82	49.0	1	4	270	0.00	30.091 
06:05	54.4	54.4	54.4	81	48.7	1	3	270	0.00	30.091 
06:10	54.2	54.2	54.2	81	48.5	0	1	270	0.00	30.091 
06:15	54.2	54.2	54.2	81	48.5	1	4	270	0.00	30.092 
06:20	54.1	54.1	54.1	81	48.4	0	1	270	0.00	30.092 
06:25	54.1	54.1	54.1	81	48.4	1	3	270	0.00	30.092 
06:30	54.1	54.1	54.1	81	48.4	1	4	270	0.00	30.089 
06:35	53.9	53.9	53.9	81	48.2	0	2	270	0.00	30.089 
06:40	53.8	53.8	53.8	82	48.4	0	2	270	0.00	30.089 
06:45	53.6	53.6	53.6	83	48.6	0	3	270	0.00	30.094 
06:50	53.3	53.3	53.3	84	48.6	0	2	270	0.00	30.094 
06:55	53.2	53.2	53.2	85	48.8	0	1	270	0.00	30.094 
07:00	53.2	53.2	53.2	86	49.1	0	1	270	0.00	30.093 
07:05	53.1	53.1	53.1	86	49.0	0	1	270	0.00	30.093 
07:10	52.9	52.9	52.9	87	49.1	0	1	270	0.00	30.093 
07:15	52.8	52.8	52.8	87	49.0	0	1	270	0.00	30.099 
07:20	52.6	52.6	52.6	87	48.8	0	1	270	0.00	30.099 
07:25	52.6	52.6	52.6	88	49.1	0	1	270	0.01	30.099 
07:30	52.6	52.6	52.6	88	49.1	0	1	270	0.01	30.086 
07:35	52.5	52.5	52.5	88	49.0	0	2	270	0.01	30.086 
07:40	52.3	52.3	52.3	89	49.2	0	1	270	0.00	30.086 
07:45	52.2	52.2	52.2	89	49.1	0	1	270	0.00	30.099 
07:50	51.9	51.9	51.9	90	49.1	0	1	270	0.00	30.099 
07:55	51.7	51.7	51.7	90	48.9	0	1	270	0.01	30.099 
08:00	51.6	51.6	51.6	90	48.8	0	1	270	0.02	30.104 
08:05	51.4	51.4	51.4	91	48.9	0	0	---	0.01	30.104 
08:10	51.4	51.4	51.4	91	48.9	0	1	270	0.02	30.104 
08:15	51.4	51.4	51.4	91	48.9	0	1	270	0.00	30.100 
08:20	51.3	51.3	51.3	92	49.1	0	1	270	0.00	30.100 
08:25	51.1	51.1	51.1	92	48.9	0	1	270	0.01	30.100 
08:30	51.1	51.1	51.1	92	48.9	0	1	270	0.02	30.097 
08:35	51.0	51.0	51.0	92	48.8	0	1	270	0.00	30.097 
08:40	50.8	50.8	50.8	92	48.6	0	2	270	0.00	30.097 
08:45	50.8	50.8	50.8	92	48.6	0	3	270	0.01	30.113 
08:50	50.7	50.7	50.7	92	48.5	1	4	270	0.01	30.113 
08:55	50.5	50.5	50.5	92	48.3	0	2	270	0.01	30.113 
09:00	50.4	50.4	50.4	93	48.5	0	1	270	0.00	30.099 
09:05	50.4	50.4	50.4	93	48.5	0	1	270	0.01	30.099 
09:10	50.4	50.4	50.4	93	48.5	0	1	270	0.00	30.099 
09:15	50.2	50.2	50.2	93	48.3	0	0	---	0.00	30.087 
09:20	50.2	50.2	50.2	93	48.3	0	1	270	0.00	30.087 
09:25	50.2	50.2	50.2	93	48.3	0	1	270	0.01	30.087 
09:30	50.2	50.2	50.2	93	48.3	0	1	270	0.00	30.101 
09:35	50.4	50.4	50.4	93	48.5	0	1	270	0.00	30.101 
09:40	50.4	50.4	50.4	93	48.5	0	1	270	0.00	30.101 
09:45	50.2	50.2	50.2	93	48.3	0	1	270	0.00	30.091 
09:50	50.2	50.2	50.2	93	48.3	0	3	270	0.01	30.091 
09:55	49.9	49.9	49.9	93	48.0	0	1	270	0.00	30.091 
10:00	49.9	49.9	49.9	93	48.0	0	2	270	0.00	30.086 
10:05	50.1	50.1	50.1	94	48.4	0	1	270	0.00	30.086 
10:10	49.9	49.9	49.9	93	48.0	0	1	270	0.00	30.086 
10:15	49.8	49.8	49.8	93	47.9	0	1	270	0.00	30.101 
10:20	49.6	49.6	49.6	93	47.7	0	1	270	0.01	30.101 
10:25	49.6	49.6	49.6	94	47.9	0	1	270	0.00	30.101 
10:30	49.8	49.8	49.8	93	47.9	0	1	270	0.01	30.102 
10:35	49.6	49.6	49.6	93	47.7	0	3	270	0.00	30.102 
10:40	49.6	49.6	49.6	94	47.9	0	1	270	0.00	30.102 
10:45	49.6	49.6	49.6	94	47.9	0	1	270	0.01	30.099 
10:50	49.5	49.5	49.5	93	47.6	0	2	270	0.01	30.099 
10:55	49.4	49.4	49.4	94	47.7	0	1	270	0.00	30.099 
11:00	49.5	49.5	49.5	94	47.8	0	2	270	0.00	30.098 
11:05	49.5	49.5	49.5	94	47.8	0	2	270	0.00	30.098 
11:10	49.5	49.5	49.5	94	47.8	0	2	270	0.00	30.098 
11:15	49.5	49.5	49.5	94	47.8	0	2	270	0.00	30.117 
11:20	49.4	49.4	49.4	94	47.7	0	2	270	0.00	30.117 
11:25	49.4	49.4	49.4	94	47.7	0	1	270	0.00	30.117 
11:30	49.4	49.4	49.4	94	47.7	0	1	270	0.00	30.104 
11:35	49.2	49.2	49.2	94	47.5	0	2	270	0.00	30.104 
11:40	49.2	49.2	49.2	94	47.5	0	1	270	0.00	30.104 
11:45	49.1	49.1	49.1	94	47.4	0	1	270	0.00	30.103 
11:50	49.1	49.1	49.1	94	47.4	0	3	270	0.00	30.103 
11:55	48.9	48.9	48.9	94	47.2	0	3	270	0.00	30.103 
12:00	49.1	49.1	49.1	94	47.4	0	1	270	0.00	30.114 
12:05	49.2	49.2	49.2	94	47.5	0	1	270	0.00	30.114 
12:10	49.1	49.1	49.1	93	47.2	0	2	270	0.00	30.114 
12:15	48.9	48.9	48.9	93	47.0	0	2	270	0.00	30.117 
12:20	48.8	48.8	48.8	93	46.9	0	1	270	0.00	30.117 
12:25	48.8	48.8	48.8	93	46.9	0	2	270	0.00	30.117 
12:30	48.8	48.8	48.8	93	46.9	0	1	270	0.00	30.109 
12:35	48.6	48.6	48.6	93	46.7	0	2	270	0.00	30.109 
12:40	48.8	48.8	48.8	93	46.9	0	1	270	0.00	30.109 
12:45	48.8	48.8	48.8	93	46.9	0	1	270	0.00	30.103 
12:50	48.6	48.6	48.6	93	46.7	0	2	270	0.00	30.103 
12:55	48.6	48.6	48.6	93	46.7	0	2	270	0.00	30.103 
13:00	48.8	48.8	48.8	93	46.9	0	2	270	0.00	30.106 
13:05	48.8	48.8	48.8	93	46.9	0	2	270	0.00	30.106 
13:10	48.8	48.8	48.8	93	46.9	0	1	270	0.00	30.106 
13:15	48.9	48.9	48.9	93	47.0	0	1	270	0.00	30.096 
13:20	48.9	48.9	48.9	93	47.0	0	1	270	0.00	30.096 
13:25	49.1	49.1	49.1	92	46.9	0	1	270	0.00	30.096 
13:30	49.2	49.2	49.2	92	47.0	0	1	270	0.00	30.093 
13:35	49.2	49.2	49.2	92	47.0	0	1	270	0.00	30.093 
13:40	49.2	49.2	49.2	92	47.0	0	1	270	0.00	30.093 
13:45	49.2	49.2	49.2	92	47.0	0	3	270	0.00	30.092 
13:50	49.1	49.1	49.1	91	46.6	0	2	270	0.00	30.092 
13:55	49.1	49.1	49.1	91	46.6	0	1	270	0.00	30.092 
14:00	49.1	49.1	49.1	90	46.3	0	2	270	0.00	30.093 
14:05	49.1	49.1	49.1	90	46.3	0	1	270	0.00	30.093 
14:10	49.1	49.1	49.1	90	46.3	0	1	270	0.00	30.093 
14:15	49.1	49.1	49.1	89	46.0	0	2	270	0.00	30.081 
14:20	48.9	48.9	48.9	89	45.8	0	3	270	0.00	30.081 
14:25	48.9	48.9	48.9	89	45.8	0	3	270	0.00	30.081 
14:30	49.1	49.1	49.1	91	46.6	0	1	270	0.00	30.070 
14:35	49.2	49.2	49.2	88	45.8	1	3	270	0.00	30.070 
14:40	49.2	49.2	49.2	88	45.8	0	3	270	0.00	30.070 
14:45	49.4	49.4	49.4	88	46.0	0	1	270	0.00	30.064 
14:50	49.5	49.5	49.5	88	46.1	0	3	270	0.00	30.064 
14:55	49.5	49.5	49.5	88	46.1	0	3	270	0.00	30.064 
15:00	49.8	49.8	49.8	87	46.1	0	2	270	0.00	30.049 
15:05	49.8	49.8	49.8	86	45.8	1	2	270	0.00	30.049 
15:10	49.8	49.8	49.8	85	45.5	0	3	270	0.00	30.049 
15:15	49.9	49.9	49.9	85	45.6	0	1	270	0.00	30.053 
15:20	49.9	49.9	49.9	85	45.6	0	3	270	0.00	30.053 
15:25	50.1	50.1	50.1	85	45.8	0	1	270	0.00	30.053 
15:30	50.1	50.1	50.1	84	45.5	0	2	270	0.00	30.056 
15:35	49.9	49.9	49.9	84	45.3	0	1	270	0.00	30.056 
15:40	49.8	49.8	49.8	84	45.2	0	1	270	0.00	30.056 
15:45	49.6	49.6	49.6	84	45.0	0	2	270	0.00	30.061 
15:50	49.5	49.5	49.5	85	45.2	0	2	270	0.01	30.061 
15:55	49.4	49.4	49.4	86	45.4	0	2	270	0.00	30.061 
16:00	49.1	49.1	49.1	87	45.4	0	2	270	0.00	30.053 
16:05	49.1	49.1	49.1	88	45.7	0	0	---	0.00	30.053 
16:10	49.1	49.1	49.1	88	45.7	0	1	270	0.01	30.053 
16:15	48.9	48.9	48.9	89	45.8	0	1	270	0.00	30.059 
16:20	48.8	48.8	48.8	89	45.7	0	2	270	0.00	30.059 
16:25	48.6	48.6	48.6	90	45.8	0	2	270	0.00	30.059 
16:30	48.5	48.5	48.5	90	45.7	0	2	270	0.00	30.065 
16:35	48.3	48.3	48.3	89	45.2	0	2	270	0.00	30.065 
16:40	48.0	48.0	48.0	90	45.2	0	1	270	0.00	30.065 
16:45	48.0	48.0	48.0	90	45.2	0	2	270	0.00	30.056 
16:50	47.9	47.9	47.9	90	45.1	0	1	270	0.01	30.056 
16:55	47.7	47.7	47.7	90	44.9	0	3	270	0.00	30.056 
17:00	47.7	47.7	47.7	90	44.9	0	2	270	0.00	30.055 
17:05	47.7	47.7	47.7	90	44.9	0	1	270	0.00	30.055 
17:10	47.7	47.7	47.7	90	44.9	0	1	270	0.00	30.055 
17:15	47.7	47.7	47.7	90	44.9	0	1	270	0.00	30.051 
17:20	47.7	47.7	47.7	91	45.2	0	1	270	0.00	30.051 
17:25	47.6	47.6	47.6	91	45.1	0	0	---	0.00	30.051 
17:30	47.6	47.6	47.6	91	45.1	0	1	270	0.00	30.037 
17:35	47.6	47.6	47.6	91	45.1	0	1	270	0.00	30.037 
17:40	47.6	47.6	47.6	91	45.1	0	1	270	0.01	30.037 
17:45	47.6	47.6	47.6	91	45.1	0	1	270	0.00	30.035 
17:50	47.4	47.4	47.4	91	44.9	0	1	270	0.00	30.035 
17:55	47.3	47.3	47.3	91	44.8	0	1	270	0.00	30.035 
18:00	47.3	47.3	47.3	91	44.8	0	1	270	0.00	30.052 
18:05	47.0	47.0	47.0	91	44.5	0	2	270	0.01	30.052 
18:10	47.0	47.0	47.0	91	44.5	0	1	270	0.00	30.052 
18:15	46.8	46.8	46.8	92	44.6	0	2	270	0.00	30.067 
18:20	46.7	46.7	46.7	92	44.5	0	1	270	0.02	30.067 
18:25	46.5	46.5	46.5	92	44.3	0	1	270	0.01	30.067 
18:30	46.4	46.4	46.4	92	44.2	0	2	270	0.01	30.065 
18:35	46.2	46.2	46.2	92	44.0	0	1	270	0.00	30.065 
18:40	46.2	46.2	46.2	92	44.0	0	1	270	0.00	30.065 
18:45	46.1	46.1	46.1	92	43.9	0	1	270	0.00	30.072 
18:50	46.0	46.0	46.0	92	43.8	0	2	270	0.00	30.072 
18:55	45.8	45.8	45.8	92	43.6	0	2	270	0.00	30.072 
19:00	45.8	45.8	45.8	92	43.6	0	2	270	0.01	30.059 
19:05	45.7	45.7	45.7	92	43.5	0	1	270	0.00	30.059 
19:10	45.7	45.7	45.7	92	43.5	0	1	270	0.00	30.059 
19:15	45.4	45.4	45.4	92	43.2	0	3	270	0.00	30.058 
19:20	45.2	45.2	45.2	92	43.0	0	3	270	0.01	30.058 
19:25	45.2	45.2	45.2	92	43.0	0	1	270	0.00	30.058 
19:30	45.1	45.1	45.1	92	42.9	0	1	270	0.00	30.069 
19:35	45.1	45.1	45.1	92	42.9	0	1	270	0.00	30.069 
19:40	45.1	45.1	45.1	92	42.9	0	2	270	0.00	30.069 
19:45	44.9	44.9	44.9	92	42.7	1	4	270	0.00	30.059 
19:50	44.9	44.9	44.9	92	42.7	1	3	270	0.00	30.059 
19:55	44.8	44.8	44.8	92	42.6	1	3	270	0.00	30.059 
20:00	44.8	44.8	44.8	92	42.6	0	2	270	0.01	30.040 
20:05	44.6	44.6	44.6	92	42.4	1	3	270	0.00	30.040 
20:10	44.6	44.6	44.6	92	42.4	0	3	270	0.01	30.040 
20:15	44.5	44.5	44.5	92	42.3	0	1	270	0.00	30.038 
20:20	44.5	44.5	44.5	93	42.6	0	2	270	0.01	30.038 
20:25	44.1	44.1	44.1	92	41.9	2	4	270	0.01	30.038 
20:30	43.8	43.8	43.8	92	41.6	1	3	270	0.00	30.081 
20:35	43.3	43.3	43.3	92	41.1	1	4	270	0.01	30.081 
20:40	43.2	43.2	43.2	92	41.0	1	3	270	0.01	30.081 
20:45	43.1	43.1	43.1	92	40.9	1	3	270	0.01	30.087 
20:50	42.9	42.9	42.9	92	40.7	0	1	270	0.01	30.087 
20:55	42.9	42.9	42.9	92	40.7	0	0	---	0.01	30.087 
21:00	42.9	42.9	42.9	92	40.7	0	1	270	0.00	30.059 
21:05	42.8	42.8	42.8	92	40.6	0	1	270	0.00	30.059 
21:10	42.8	42.8	42.8	93	40.9	0	2	270	0.00	30.059 
21:15	42.5	42.5	42.5	92	40.3	0	2	270	0.00	30.061 
21:20	42.2	42.2	42.2	92	40.0	0	2	270	0.00	30.061 
21:25	42.1	42.1	42.1	92	39.9	0	2	270	0.00	30.061 
21:30	42.1	42.1	42.1	93	40.2	1	2	270	0.01	30.067 
21:35	42.1	42.1	42.1	93	40.2	0	2	270	0.00	30.067 
21:40	42.1	42.1	42.1	93	40.2	1	3	270	0.01	30.067 
21:45	42.1	42.1	42.1	93	40.2	0	2	270	0.00	30.059 
21:50	42.1	42.1	42.1	93	40.2	1	4	270	0.00	30.059 
21:55	42.1	42.1	42.1	93	40.2	1	3	270	0.01	30.059 
22:00	42.1	42.1	42.1	93	40.2	0	3	270	0.00	30.044 
22:05	42.1	42.1	42.1	93	40.2	0	2	270	0.00	30.044 
22:10	41.9	41.9	41.9	93	40.0	1	3	270	0.01	30.044 
22:15	41.9	41.9	41.9	93	40.0	0	2	270	0.00	30.062 
22:20	41.8	41.8	41.8	93	39.9	0	1	270	0.00	30.062 
22:25	41.6	41.6	41.6	93	39.7	0	2	270	0.01	30.062 
22:30	41.5	41.5	41.5	93	39.6	0	1	270	0.01	30.033 
22:35	41.3	41.3	41.3	93	39.4	0	0	---	0.00	30.033 
22:40	41.3	41.3	41.3	93	39.4	0	0	---	0.01	30.033 
22:45	41.2	41.2	41.2	94	39.6	0	1	270	0.00	30.044 
22:50	41.3	41.3	41.3	94	39.7	0	1	270	0.00	30.044 
22:55	41.3	41.3	41.3	94	39.7	0	0	---	0.00	30.044 
23:00	41.3	41.3	41.3	94	39.7	0	0	---	0.00	30.038 
23:05	41.3	41.3	41.3	94	39.7	0	0	---	0.00	30.038 
23:10	41.5	41.5	41.5	94	39.9	0	1	270	0.00	30.038 
23:15	41.6	41.6	41.6	94	40.0	0	1	270	0.00	30.044 
23:20	41.8	41.8	41.8	94	40.2	0	1	270	0.00	30.044 
23:25	41.8	41.8	41.8	94	40.2	0	3	270	0.00	30.044 
23:30	41.6	41.6	41.6	94	40.0	0	2	270	0.00	30.044 
23:35	41.5	41.5	41.5	94	39.9	0	1	270	0.00	30.044 
23:40	41.5	41.5	41.5	94	39.9	0	1	270	0.00	30.044 
23:45	41.5	41.5	41.5	94	39.9	0	1	270	0.00	30.040 
23:50	41.5	41.5	41.5	94	39.9	0	1	270	0.00	30.040 
23:55	41.6	41.6	41.6	94	40.0	0	1	270	0.00	30.040 

CoCoRaHS
IN-AL-39
A2 Web Hosting
Creative Commons License
GoDaddy
search engine by freefind advanced

loaded 2018-11-17 23:02:00 • last modified 2010-11-18 10:43:29
Privacy PolicyDisclaimer
• wx.awcolley.com is powered by PmWiki v.2002016 •
• all content (unless otherwise noted) © 2018 A W Colley